メインページ
METAR-TAF:

METAR-TAF

空港 :

マイアミ国際空港

マイアミ, フロリダ州, アメリカ合衆国

緯度: 25-47-26N, 経度: 080-18-59W, 海抜: 3m

現時点の気象観測

当レポートは27分前の18:07(UTC)に作成
東/南東の風 6kt
気温 31°C
湿度 66%
気圧 1017 hPa
視程: 16.1km
高度3000ftの千切れ雲あり, 積乱雲.
高度4600ftの千切れ雲あり
高度25000ftの千切れ雲あり
激しい雷雨

METAR: KMIA 201807Z 12006KT 10SM TS BKN030CB BKN046 BKN250 31/24 A3002 RMK AO2 LTG DSNT SW AND NW TSB01 OCNL LTGICCG SW-NW TS SW-NW MOV S T03060244

時間: 14:34 (18:34 UTC)

予報

当レポートは1時間14分前の17:20(UTC)に作成
予報は20日の 18時(UTC)から 21日の 24時(UTC)まで有効
の風 10kt
視程: 10km
高度3000ftの雲は散在している
高度5000ftの雲は散在している
20日の 1900時(UTC)から
の風 10kt
視程: 10km
高度3000ftの雲は散在している, 積乱雲.
高度5000ftの雲は散在している
近辺で激しい雷雨
20日の 2300時(UTC)から
の風 7kt
視程: 10km
高度3000ftの雲は散在している
高度5000ftの雲は散在している
21日の 0300時(UTC)から
変向風 4kt
視程: 10km
高度4000ftの雲は散在している
高度25000ftの雲は散在している
21日の 1500時(UTC)から
東/北東の風 8kt
視程: 10km
高度3000ftの雲は散在している
高度25000ftの雲は散在している
21日の 1800時(UTC)から
の風 8kt
視程: 10km
高度3000ftの雲は散在している, 積乱雲.
高度5000ftの雲は散在している
近辺で激しい雷雨

TAF: KMIA 201720Z 2018/2124 09010KT P6SM SCT030 SCT050 FM201900 09010KT P6SM VCTS SCT030CB SCT050 FM202300 09007KT P6SM SCT030 SCT050 FM210300 VRB04KT P6SM SCT040 SCT250 FM211500 07008KT P6SM SCT030 SCT250 FM211800 09008KT P6SM VCTS SCT030CB SCT050

4,000以上の空港の気象観測と天気予報(METAR報とTAF報)

利用可能な観測所は地図上に黄色い丸と赤い丸で示す。

丸の上にカーソルを重ねると観測所名を参照できる。

次にクリックすると気象観測と天気予報を参照できる。

マップの切り替え:黒色「×」印の緑ボタンをクリックして拡大、「-」印の緑ボタンをクリックして縮小、緑色の三角印をクリックして隣りの地図に切り替え


METAR-TAF: